Darstellungsparameter: Aktuell verwendete Einstellungen:
Skalierung der Graphiken ... ?
xyx+y,   Skalierungsfaktor:      Skalierung: Modus: x, Faktor: 1
Darstellungszeitraum ... ?
Vom - - bis: - -   Zeitraum: 31.05.2009 - 06.06.2009
Min/Max/Avg-Anzeige ... ?
Zeige MMA aktuell
Zeige MMA Monat
Zeige MMA alles
Zeige --A aktuell
Zeige --A Monat
Zeige --A alles
Keine MMA-Anzeige
MMA:
Keine MMA-Graphiken
MMA-Basis: 31.05.2009 - 06.06.2009
Quicknavigation für Darstellung... ?
Tage:      1T, 2T, 3T, 5T -1T -2T -3T -5T +1T +2T +3T +5T
Wochen: 1W, 2W, 3W -1W -2W -3W +1W +2W +3W
Monate: 1M, 3M, 6M -1M -3M -6M +1M +3M +6M
Jahre:    1J, 3J, 5J, 10J -1J -3J -5J -10J +1J +3J +5J +10J
Nutze für die Darstellung ... ?
Originaldaten oder Mittelwerte auf ...
Stundenbasis Tagesbasis Wochenbasis
Monatsbasis Jahresbasis      Datenbasis: Original-Daten
Darstellen als:
Statistik (Auto) Statistik J:M      Darstellung:
Zur Graphik,    zurück zur Übersicht aller Sensoren.
 
Tabellarische Datenbersicht: ?
 
Sensor: Nr:Datum:Temp:Abs-Feuchte:Windchill:Wind:
Aussen-T/F 1 31-05-2009 00:01:54 16.6 C 6.92 g/m*3 16.6 C 0 km/h
2 31-05-2009 00:13:54 16.4 C 7.12 g/m*3 16.4 C 0 km/h
3 31-05-2009 00:25:54 16.3 C 7.21 g/m*3 16.3 C 0 km/h
4 31-05-2009 00:37:54 16.6 C 7.35 g/m*3 16.6 C 0 km/h
5 31-05-2009 00:49:55 16.7 C 7.39 g/m*3 16.7 C 0 km/h
6 31-05-2009 01:01:55 16.7 C 7.39 g/m*3 16.7 C 0 km/h
7 31-05-2009 01:13:55 16.4 C 7.4 g/m*3 16.4 C 0 km/h
8 31-05-2009 01:25:55 16 C 7.36 g/m*3 16 C 0 km/h
9 31-05-2009 01:37:55 15.5 C 7.4 g/m*3 15.5 C 0 km/h
10 31-05-2009 01:49:55 15.6 C 7.71 g/m*3 15.6 C 0 km/h
11 31-05-2009 02:01:55 15.8 C 7.67 g/m*3 15.8 C 0 km/h
12 31-05-2009 02:13:55 15.8 C 7.67 g/m*3 15.8 C 0 km/h
13 31-05-2009 02:25:55 15.7 C 7.76 g/m*3 15.7 C 0 km/h
14 31-05-2009 02:37:55 15.9 C 7.85 g/m*3 15.9 C 0 km/h
15 31-05-2009 02:49:55 15.9 C 7.85 g/m*3 15.9 C 0 km/h
16 31-05-2009 03:01:55 15.8 C 7.81 g/m*3 15.8 C 0 km/h
17 31-05-2009 03:13:55 15.9 C 7.72 g/m*3 15.9 C 0 km/h
18 31-05-2009 03:25:55 15.6 C 7.71 g/m*3 15.6 C 0 km/h
19 31-05-2009 03:37:55 15.5 C 7.8 g/m*3 15.5 C 0 km/h
20 31-05-2009 03:49:55 15.5 C 7.8 g/m*3 15.5 C 0 km/h
21 31-05-2009 04:01:55 15.6 C 7.98 g/m*3 15.6 C 0 km/h
22 31-05-2009 04:13:55 15.5 C 7.93 g/m*3 15.5 C 0 km/h
23 31-05-2009 04:25:55 15.2 C 7.92 g/m*3 15.2 C 0 km/h
24 31-05-2009 04:37:56 15.4 C 8.01 g/m*3 15.4 C 0 km/h
25 31-05-2009 04:49:56 15.5 C 8.06 g/m*3 15.5 C 0 km/h
Sensor: Nr:Datum:Temp:Abs-Feuchte:Windchill:Wind:
Aussen-T/F 26 31-05-2009 05:01:56 15.5 C 8.06 g/m*3 15.5 C 0 km/h
27 31-05-2009 05:13:56 15.4 C 8.01 g/m*3 15.4 C 0 km/h
28 31-05-2009 05:25:56 15.4 C 8.01 g/m*3 15.4 C 0 km/h
29 31-05-2009 05:37:56 15.4 C 8.01 g/m*3 15.4 C 0 km/h
30 31-05-2009 05:49:56 15.4 C 8.15 g/m*3 15.4 C 0 km/h
31 31-05-2009 06:01:56 15.3 C 8.1 g/m*3 15.3 C 0 km/h
32 31-05-2009 06:13:56 15.4 C 8.28 g/m*3 15.4 C 0 km/h
33 31-05-2009 06:25:56 15.6 C 8.38 g/m*3 15.6 C 0 km/h
34 31-05-2009 06:37:56 15.8 C 8.35 g/m*3 15.8 C 0 km/h
35 31-05-2009 06:49:56 15.9 C 8.4 g/m*3 15.9 C 0 km/h
36 31-05-2009 07:01:56 16 C 8.31 g/m*3 16 C 0 km/h
37 31-05-2009 07:13:56 15.9 C 8.26 g/m*3 15.9 C 0 km/h
38 31-05-2009 07:25:56 16 C 8.31 g/m*3 16 C 0 km/h
39 31-05-2009 07:37:56 16 C 8.58 g/m*3 16 C 0 km/h
40 31-05-2009 07:49:56 16 C 8.58 g/m*3 16 C 0 km/h
41 31-05-2009 08:01:54 15.9 C 8.67 g/m*3 15.9 C 0 km/h
42 31-05-2009 08:13:54 16.2 C 8.83 g/m*3 16.2 C 0 km/h
43 31-05-2009 08:25:54 16.7 C 8.95 g/m*3 16.7 C 0 km/h
44 31-05-2009 08:37:53 17.5 C 8.8 g/m*3 17.5 C 0 km/h
45 31-05-2009 08:49:54 17.6 C 8.7 g/m*3 17.6 C 0 km/h
46 31-05-2009 09:01:53 17.7 C 8.75 g/m*3 17.7 C 0 km/h
47 31-05-2009 09:13:53 18.3 C 8.6 g/m*3 18.3 C 0 km/h
48 31-05-2009 09:25:53 18.6 C 8.59 g/m*3 18.6 C 0 km/h
49 31-05-2009 09:37:54 18.9 C 8.59 g/m*3 18.9 C 0 km/h
50 31-05-2009 09:49:53 18.9 C 8.26 g/m*3 18.9 C 0 km/h
Sensor: Nr:Datum:Temp:Abs-Feuchte:Windchill:Wind:
Aussen-T/F 51 31-05-2009 10:01:53 19.3 C 8.29 g/m*3 19.3 C 0 km/h
52 31-05-2009 10:13:53 20.1 C 8.34 g/m*3 20.1 C 0 km/h
53 31-05-2009 10:25:53 20.4 C 7.96 g/m*3 20.4 C 0 km/h
54 31-05-2009 10:37:53 20.5 C 8.01 g/m*3 20.5 C 0 km/h
55 31-05-2009 10:49:52 20.5 C 8.19 g/m*3 20.5 C 0 km/h
56 31-05-2009 11:01:53 20.9 C 8.01 g/m*3 20.9 C 0 km/h
57 31-05-2009 11:13:54 21.2 C 7.78 g/m*3 21.2 C 0 km/h
58 31-05-2009 11:25:52 21.4 C 7.5 g/m*3 21.4 C 0 km/h
59 31-05-2009 11:37:52 21.9 C 7.53 g/m*3 21.9 C 0 km/h
60 31-05-2009 11:49:51 22.4 C 7.35 g/m*3 22.4 C 0 km/h
61 31-05-2009 12:01:52 23.3 C 7.11 g/m*3 23.3 C 0 km/h
62 31-05-2009 12:13:52 23.9 C 7.14 g/m*3 23.9 C 0 km/h
63 31-05-2009 12:25:52 23 C 6.78 g/m*3 23 C 0 km/h
64 31-05-2009 12:37:51 22.7 C 7.07 g/m*3 22.7 C 0 km/h
65 31-05-2009 12:49:52 22.2 C 7.07 g/m*3 22.2 C 0 km/h
66 31-05-2009 13:01:51 23.1 C 6.82 g/m*3 23.1 C 0 km/h
67 31-05-2009 13:13:51 25.6 C 6.43 g/m*3 25.6 C 0 km/h
68 31-05-2009 13:25:51 26.1 C 5.39 g/m*3 26.1 C 0 km/h
69 31-05-2009 13:37:51 23.5 C 6.13 g/m*3 23.5 C 0 km/h
70 31-05-2009 13:49:51 23.1 C 5.99 g/m*3 23.1 C 0 km/h
71 31-05-2009 14:01:51 24.5 C 6.49 g/m*3 24.5 C 0 km/h
72 31-05-2009 14:13:51 25 C 6.22 g/m*3 25 C 0 km/h
73 31-05-2009 14:25:50 25.4 C 5.89 g/m*3 25.4 C 0 km/h
74 31-05-2009 14:37:51 25.7 C 5.99 g/m*3 25.7 C 0 km/h
75 31-05-2009 14:49:50 25.6 C 5.95 g/m*3 25.6 C 0 km/h
Sensor: Nr:Datum:Temp:Abs-Feuchte:Windchill:Wind:
Aussen-T/F 76 31-05-2009 15:01:50 25.8 C 5.3 g/m*3 25.8 C 0 km/h
77 31-05-2009 15:13:50 26.3 C 5.2 g/m*3 26.3 C 0 km/h
78 31-05-2009 15:25:50 25.6 C 5 g/m*3 25.6 C 0 km/h
79 31-05-2009 15:37:50 26.7 C 5.32 g/m*3 26.7 C 0 km/h
80 31-05-2009 15:49:49 27.4 C 5.26 g/m*3 27.4 C 0 km/h
81 31-05-2009 16:01:50 27.1 C 5.18 g/m*3 27.1 C 0 km/h
82 31-05-2009 16:13:50 27.1 C 5.18 g/m*3 27.1 C 0 km/h
83 31-05-2009 16:25:50 28.1 C 5.47 g/m*3 28.1 C 0 km/h
84 31-05-2009 16:37:49 27.1 C 5.18 g/m*3 27.1 C 0 km/h
85 31-05-2009 16:49:50 27 C 5.15 g/m*3 27 C 0 km/h
86 31-05-2009 17:01:49 25.4 C 5.41 g/m*3 25.4 C 0 km/h
87 31-05-2009 17:13:49 25.5 C 5.21 g/m*3 25.5 C 0 km/h
88 31-05-2009 17:25:49 25.8 C 5.3 g/m*3 25.8 C 0 km/h
89 31-05-2009 17:37:48 25.8 C 5.54 g/m*3 25.8 C 0 km/h
90 31-05-2009 17:49:49 25.5 C 5.21 g/m*3 25.5 C 0 km/h
91 31-05-2009 18:01:48 24.8 C 5.46 g/m*3 24.8 C 0 km/h
92 31-05-2009 18:13:48 27.5 C 5.29 g/m*3 27.5 C 0 km/h
93 31-05-2009 18:25:48 25.6 C 5.24 g/m*3 25.6 C 0 km/h
94 31-05-2009 18:37:49 25.7 C 5.75 g/m*3 25.7 C 0 km/h
95 31-05-2009 18:49:48 27 C 5.4 g/m*3 27 C 0 km/h
96 31-05-2009 19:01:48 27.5 C 5.56 g/m*3 27.5 C 0 km/h
97 31-05-2009 19:13:48 27.5 C 5.56 g/m*3 27.5 C 0 km/h
98 31-05-2009 19:25:48 27.6 C 5.59 g/m*3 27.6 C 0 km/h
99 31-05-2009 19:37:47 26.8 C 5.6 g/m*3 26.8 C 0 km/h
100 31-05-2009 19:49:48 25.6 C 5.95 g/m*3 25.6 C 0 km/h
Sensor: Nr:Datum:Temp:Abs-Feuchte:Windchill:Wind:
Aussen-T/F 101 31-05-2009 20:01:47 24.1 C 5.69 g/m*3 24.1 C 0 km/h
102 31-05-2009 20:13:47 24.1 C 5.91 g/m*3 24.1 C 0 km/h
103 31-05-2009 20:25:48 23.3 C 6.06 g/m*3 23.3 C 0 km/h
104 31-05-2009 20:37:47 22.9 C 6.34 g/m*3 22.9 C 0 km/h
105 31-05-2009 20:49:47 22.2 C 6.48 g/m*3 22.2 C 0 km/h
106 31-05-2009 21:01:47 21.4 C 6.75 g/m*3 21.4 C 0 km/h
107 31-05-2009 21:13:47 20.8 C 6.88 g/m*3 20.8 C 0 km/h
108 31-05-2009 21:25:47 20 C 6.57 g/m*3 20 C 0 km/h
109 31-05-2009 21:37:46 19.6 C 6.75 g/m*3 19.6 C 0 km/h
110 31-05-2009 21:49:47 19.2 C 6.76 g/m*3 19.2 C 0 km/h
111 31-05-2009 22:01:46 18.9 C 6.97 g/m*3 18.9 C 0 km/h
112 31-05-2009 22:13:46 18.6 C 7 g/m*3 18.6 C 0 km/h
113 31-05-2009 22:25:46 18.4 C 7.08 g/m*3 18.4 C 0 km/h
114 31-05-2009 22:37:46 18 C 7.07 g/m*3 18 C 0 km/h
115 31-05-2009 22:49:01 17.8 C 7.29 g/m*3 17.8 C 0 km/h
116 31-05-2009 23:01:01 17.7 C 7.24 g/m*3 17.7 C 0 km/h
117 31-05-2009 23:13:01 17.4 C 7.26 g/m*3 17.4 C 0 km/h
118 31-05-2009 23:25:01 17.2 C 7.32 g/m*3 17.2 C 0 km/h
119 31-05-2009 23:37:01 16.9 C 7.34 g/m*3 16.9 C 0 km/h
120 31-05-2009 23:49:00 16.6 C 7.35 g/m*3 16.6 C 0 km/h
121 01-06-2009 00:01:00 16.6 C 7.49 g/m*3 16.6 C 0 km/h
122 01-06-2009 00:13:00 16.3 C 7.49 g/m*3 16.3 C 0 km/h
123 01-06-2009 00:26:01 16.1 C 7.54 g/m*3 16.1 C 0 km/h
124 01-06-2009 00:38:01 15.9 C 7.85 g/m*3 15.9 C 0 km/h
125 01-06-2009 00:50:01 15.6 C 7.85 g/m*3 15.6 C 0 km/h
Sensor: Nr:Datum:Temp:Abs-Feuchte:Windchill:Wind:
Aussen-T/F 126 01-06-2009 01:02:01 15.6 C 7.98 g/m*3 15.6 C 0 km/h
127 01-06-2009 01:14:01 15.2 C 7.92 g/m*3 15.2 C 0 km/h
128 01-06-2009 01:26:01 14.9 C 7.9 g/m*3 14.9 C 0 km/h
129 01-06-2009 01:38:01 14.8 C 8.11 g/m*3 14.8 C 0 km/h
130 01-06-2009 01:50:01 14.6 C 8.01 g/m*3 14.6 C 0 km/h
131 01-06-2009 02:02:01 14.5 C 7.96 g/m*3 14.5 C 0 km/h
132 01-06-2009 02:14:01 14.3 C 8.11 g/m*3 14.3 C 0 km/h
133 01-06-2009 02:26:01 14.1 C 8.13 g/m*3 14.1 C 0 km/h
134 01-06-2009 02:38:01 13.7 C 8.05 g/m*3 13.7 C 0 km/h
135 01-06-2009 02:50:01 13.8 C 8.22 g/m*3 13.8 C 0 km/h
136 01-06-2009 03:02:01 13.6 C 8.24 g/m*3 13.6 C 0 km/h
137 01-06-2009 03:14:01 13.4 C 8.25 g/m*3 13.4 C 0 km/h
138 01-06-2009 03:26:01 13.3 C 8.2 g/m*3 13.3 C 0 km/h
139 01-06-2009 03:38:01 13.1 C 8.22 g/m*3 13.1 C 0 km/h
140 01-06-2009 03:50:01 13 C 8.28 g/m*3 13 C 0 km/h
141 01-06-2009 04:02:01 12.9 C 8.34 g/m*3 12.9 C 0 km/h
142 01-06-2009 04:14:02 12.8 C 8.4 g/m*3 12.8 C 0 km/h
143 01-06-2009 04:26:02 12.6 C 8.3 g/m*3 12.6 C 0 km/h
144 01-06-2009 04:38:02 12.5 C 8.36 g/m*3 12.5 C 0 km/h
145 01-06-2009 04:50:02 12.4 C 8.3 g/m*3 12.4 C 0 km/h
146 01-06-2009 05:02:02 12.2 C 8.2 g/m*3 12.2 C 0 km/h
147 01-06-2009 05:14:02 12.3 C 8.25 g/m*3 12.3 C 0 km/h
148 01-06-2009 05:26:02 12.4 C 8.41 g/m*3 12.4 C 0 km/h
149 01-06-2009 05:38:02 12.6 C 8.52 g/m*3 12.6 C 0 km/h
150 01-06-2009 05:50:02 12.8 C 8.51 g/m*3 12.8 C 0 km/h
Sensor: Nr:Datum:Temp:Abs-Feuchte:Windchill:Wind:
Aussen-T/F 151 01-06-2009 06:02:02 12.8 C 8.51 g/m*3 12.8 C 0 km/h
152 01-06-2009 06:14:02 13 C 8.39 g/m*3 13 C 0 km/h
153 01-06-2009 06:26:02 13.2 C 8.5 g/m*3 13.2 C 0 km/h
154 01-06-2009 06:38:02 13.2 C 8.38 g/m*3 13.2 C 0 km/h
155 01-06-2009 06:50:02 13.5 C 8.54 g/m*3 13.5 C 0 km/h
156 01-06-2009 07:02:02 13.5 C 8.54 g/m*3 13.5 C 0 km/h
157 01-06-2009 07:14:02 13.6 C 8.59 g/m*3 13.6 C 0 km/h
158 01-06-2009 07:26:02 13.8 C 8.7 g/m*3 13.8 C 0 km/h
159 01-06-2009 07:38:02 14.3 C 8.72 g/m*3 14.3 C 0 km/h
160 01-06-2009 07:50:02 14.4 C 8.65 g/m*3 14.4 C 0 km/h
161 01-06-2009 08:02:03 14.3 C 8.72 g/m*3 14.3 C 0 km/h
162 01-06-2009 08:14:03 14.5 C 8.83 g/m*3 14.5 C 0 km/h
163 01-06-2009 08:26:03 15.1 C 8.9 g/m*3 15.1 C 0 km/h
164 01-06-2009 08:38:01 15.9 C 8.94 g/m*3 15.9 C 0 km/h
165 01-06-2009 08:50:01 16.9 C 8.92 g/m*3 16.9 C 0 km/h
166 01-06-2009 09:02:00 17.1 C 8.73 g/m*3 17.1 C 0 km/h
167 01-06-2009 09:14:00 17.6 C 9 g/m*3 17.6 C 0 km/h
168 01-06-2009 09:26:01 18.2 C 8.7 g/m*3 18.2 C 0 km/h
169 01-06-2009 09:38:01 18.3 C 8.76 g/m*3 18.3 C 0 km/h
170 01-06-2009 09:50:00 18.7 C 8.81 g/m*3 18.7 C 0 km/h
171 01-06-2009 10:02:01 19.6 C 8.78 g/m*3 19.6 C 0 km/h
172 01-06-2009 10:14:01 20.1 C 8.52 g/m*3 20.1 C 0 km/h
173 01-06-2009 10:26:00 20.8 C 8.87 g/m*3 20.8 C 0 km/h
174 01-06-2009 10:38:00 21.7 C 9.16 g/m*3 21.7 C 0 km/h
175 01-06-2009 10:50:00 22.1 C 8.39 g/m*3 22.1 C 0 km/h
Sensor: Nr:Datum:Temp:Abs-Feuchte:Windchill:Wind:
Aussen-T/F 176 01-06-2009 11:14:00 22.5 C 8.39 g/m*3 22.5 C 0 km/h
177 01-06-2009 11:14:00 22.8 C 8.53 g/m*3 22.8 C 0 km/h
178 01-06-2009 11:14:00 22.5 C 8.39 g/m*3 22.5 C 0 km/h
179 01-06-2009 11:14:00 22.8 C 8.53 g/m*3 22.8 C 0 km/h
180 01-06-2009 11:26:00 22.6 C 8.44 g/m*3 22.6 C 0 km/h
181 01-06-2009 11:37:59 23.3 C 8.15 g/m*3 23.3 C 0 km/h
182 01-06-2009 11:50:59 24.5 C 8.06 g/m*3 24.5 C 0 km/h
183 01-06-2009 12:02:59 24.5 C 7.83 g/m*3 24.5 C 0 km/h
184 01-06-2009 12:14:58 25.7 C 7.42 g/m*3 25.7 C 0 km/h
185 01-06-2009 12:26:58 26.5 C 7.76 g/m*3 26.5 C 0 km/h
186 01-06-2009 12:38:59 26.8 C 7.38 g/m*3 26.8 C 0 km/h
187 01-06-2009 12:50:58 26.2 C 7.39 g/m*3 26.2 C 0 km/h
188 01-06-2009 13:02:58 25.4 C 8.24 g/m*3 25.4 C 0 km/h
189 01-06-2009 13:14:59 24.8 C 8.65 g/m*3 24.8 C 0 km/h
190 01-06-2009 13:26:59 25.6 C 8.09 g/m*3 25.6 C 0 km/h
191 01-06-2009 13:38:58 25.7 C 8.38 g/m*3 25.7 C 0 km/h
192 01-06-2009 13:50:58 24.4 C 8.46 g/m*3 24.4 C 0 km/h
193 01-06-2009 14:02:58 19.6 C 9.12 g/m*3 19.6 C 0 km/h
194 01-06-2009 14:14:58 19 C 11.73 g/m*3 19 C 0 km/h
195 01-06-2009 14:26:59 20.1 C 12.69 g/m*3 20.1 C 0 km/h
196 01-06-2009 14:38:57 22.4 C 11.12 g/m*3 22.4 C 0 km/h
197 01-06-2009 14:50:57 22.7 C 11.11 g/m*3 22.7 C 0 km/h
198 01-06-2009 15:02:57 22.1 C 12.1 g/m*3 22.1 C 0 km/h
199 01-06-2009 15:14:57 22.6 C 12.25 g/m*3 22.6 C 0 km/h
200 01-06-2009 15:26:57 23.7 C 11.55 g/m*3 23.7 C 0 km/h
Sensor: Nr:Datum:Temp:Abs-Feuchte:Windchill:Wind:
Aussen-T/F 201 01-06-2009 15:38:57 23.6 C 11.91 g/m*3 23.6 C 0 km/h
202 01-06-2009 15:50:57 24.6 C 11.25 g/m*3 24.6 C 0 km/h
203 01-06-2009 16:02:57 25.9 C 9.44 g/m*3 25.9 C 0 km/h
204 01-06-2009 16:14:56 26.9 C 8.7 g/m*3 26.9 C 0 km/h
205 01-06-2009 16:26:56 28.8 C 7.39 g/m*3 28.8 C 0 km/h
206 01-06-2009 16:38:56 29.4 C 6.75 g/m*3 29.4 C 0 km/h
207 01-06-2009 16:50:56 25.6 C 6.9 g/m*3 25.6 C 0 km/h
208 01-06-2009 17:02:56 21.6 C 11.57 g/m*3 21.6 C 0 km/h
209 01-06-2009 17:14:56 22.4 C 11.72 g/m*3 22.4 C 0 km/h
210 01-06-2009 17:26:56 23.3 C 11.5 g/m*3 23.3 C 0 km/h
211 01-06-2009 17:38:56 24.3 C 10.4 g/m*3 24.3 C 0 km/h
212 01-06-2009 17:50:56 24.7 C 9.96 g/m*3 24.7 C 0 km/h
213 01-06-2009 18:02:55 24.7 C 9.51 g/m*3 24.7 C 0 km/h
214 01-06-2009 18:14:56 25.4 C 8.95 g/m*3 25.4 C 0 km/h
215 01-06-2009 18:26:57 25.9 C 9.44 g/m*3 25.9 C 0 km/h
216 01-06-2009 18:38:55 28 C 8.16 g/m*3 28 C 0 km/h
217 01-06-2009 18:50:55 27.4 C 8.95 g/m*3 27.4 C 0 km/h
218 01-06-2009 19:02:54 25.6 C 8.81 g/m*3 25.6 C 0 km/h
219 01-06-2009 19:14:55 23.7 C 8.34 g/m*3 23.7 C 0 km/h
220 01-06-2009 19:26:55 24.2 C 8.14 g/m*3 24.2 C 0 km/h
221 01-06-2009 19:38:55 25.3 C 8.19 g/m*3 25.3 C 0 km/h
222 01-06-2009 19:50:54 25.3 C 7.73 g/m*3 25.3 C 0 km/h
223 01-06-2009 20:02:55 25.2 C 7.68 g/m*3 25.2 C 0 km/h
224 01-06-2009 20:14:54 24.9 C 7.78 g/m*3 24.9 C 0 km/h
225 01-06-2009 20:26:54 24.5 C 7.61 g/m*3 24.5 C 0 km/h
Sensor: Nr:Datum:Temp:Abs-Feuchte:Windchill:Wind:
Aussen-T/F 226 01-06-2009 20:38:54 23.7 C 7.49 g/m*3 23.7 C 0 km/h
227 01-06-2009 20:50:54 22.6 C 7.83 g/m*3 22.6 C 0 km/h
228 01-06-2009 21:02:53 22.1 C 8.59 g/m*3 22.1 C 0 km/h
229 01-06-2009 21:14:54 21.1 C 8.48 g/m*3 21.1 C 0 km/h
230 01-06-2009 21:26:54 20.3 C 8.62 g/m*3 20.3 C 0 km/h
231 01-06-2009 21:38:54 19.7 C 8.49 g/m*3 19.7 C 0 km/h
232 01-06-2009 21:50:53 19.3 C 8.63 g/m*3 19.3 C 0 km/h
233 01-06-2009 22:02:54 19 C 8.64 g/m*3 19 C 0 km/h
234 01-06-2009 22:14:53 18.6 C 8.91 g/m*3 18.6 C 0 km/h
235 01-06-2009 22:26:53 18.4 C 8.81 g/m*3 18.4 C 0 km/h
236 01-06-2009 22:39:09 18.1 C 8.96 g/m*3 18.1 C 0 km/h
237 01-06-2009 22:51:09 17.8 C 9.11 g/m*3 17.8 C 0 km/h
238 01-06-2009 23:03:09 17.4 C 8.89 g/m*3 17.4 C 0 km/h
239 01-06-2009 23:15:09 17.2 C 8.93 g/m*3 17.2 C 0 km/h
240 01-06-2009 23:27:09 17 C 9.12 g/m*3 17 C 0 km/h
241 01-06-2009 23:39:09 16.9 C 9.21 g/m*3 16.9 C 0 km/h
242 01-06-2009 23:51:09 16.6 C 9.18 g/m*3 16.6 C 0 km/h
243 02-06-2009 00:03:09 16.4 C 9.21 g/m*3 16.4 C 0 km/h
244 02-06-2009 00:15:09 16.1 C 9.18 g/m*3 16.1 C 0 km/h
245 02-06-2009 00:27:09 16 C 9.26 g/m*3 16 C 0 km/h
246 02-06-2009 00:39:09 15.8 C 9.56 g/m*3 15.8 C 0 km/h
247 02-06-2009 00:51:09 15.5 C 9.65 g/m*3 15.5 C 0 km/h
248 02-06-2009 01:03:09 15.3 C 9.66 g/m*3 15.3 C 0 km/h
249 02-06-2009 01:15:09 15 C 9.62 g/m*3 15 C 0 km/h
250 02-06-2009 01:27:10 14.9 C 9.69 g/m*3 14.9 C 0 km/h
Sensor: Nr:Datum:Temp:Abs-Feuchte:Windchill:Wind:
Aussen-T/F 251 02-06-2009 01:39:10 14.7 C 9.82 g/m*3 14.7 C 0 km/h
252 02-06-2009 01:51:10 14.6 C 9.76 g/m*3 14.6 C 0 km/h
253 02-06-2009 02:03:10 14.4 C 9.64 g/m*3 14.4 C 0 km/h
254 02-06-2009 02:15:10 14.1 C 9.59 g/m*3 14.1 C 0 km/h
255 02-06-2009 02:27:10 14 C 9.65 g/m*3 14 C 0 km/h
256 02-06-2009 02:39:10 13.7 C 9.59 g/m*3 13.7 C 0 km/h
257 02-06-2009 02:51:10 13.7 C 9.59 g/m*3 13.7 C 0 km/h
258 02-06-2009 03:03:10 13.7 C 9.59 g/m*3 13.7 C 0 km/h
259 02-06-2009 03:15:10 13.5 C 9.59 g/m*3 13.5 C 0 km/h
260 02-06-2009 03:27:10 13.4 C 9.53 g/m*3 13.4 C 0 km/h
261 02-06-2009 03:39:10 13.4 C 9.53 g/m*3 13.4 C 0 km/h
262 02-06-2009 03:51:10 13.4 C 9.53 g/m*3 13.4 C 0 km/h
263 02-06-2009 04:03:10 13.4 C 9.42 g/m*3 13.4 C 0 km/h
264 02-06-2009 04:15:10 13.2 C 9.3 g/m*3 13.2 C 0 km/h
265 02-06-2009 04:27:10 13 C 9.19 g/m*3 13 C 0 km/h
266 02-06-2009 04:39:10 12.9 C 9.35 g/m*3 12.9 C 0 km/h
267 02-06-2009 04:51:10 12.8 C 9.3 g/m*3 12.8 C 0 km/h
268 02-06-2009 05:03:10 12.7 C 9.35 g/m*3 12.7 C 0 km/h
269 02-06-2009 05:15:11 12.5 C 9.24 g/m*3 12.5 C 0 km/h
270 02-06-2009 05:27:11 12.4 C 9.18 g/m*3 12.4 C 0 km/h
271 02-06-2009 05:39:11 12.4 C 9.18 g/m*3 12.4 C 0 km/h
272 02-06-2009 05:51:11 12.4 C 9.18 g/m*3 12.4 C 0 km/h
273 02-06-2009 06:03:11 12.4 C 9.18 g/m*3 12.4 C 0 km/h
274 02-06-2009 06:15:11 12.6 C 9.18 g/m*3 12.6 C 0 km/h
275 02-06-2009 06:27:11 12.9 C 8.9 g/m*3 12.9 C 0 km/h
Sensor: Nr:Datum:Temp:Abs-Feuchte:Windchill:Wind:
Aussen-T/F 276 02-06-2009 06:39:54 13.1 C 8.22 g/m*3 13.1 C 0 km/h
277 02-06-2009 06:51:54 13.5 C 7.95 g/m*3 13.5 C 0 km/h
278 02-06-2009 07:03:53 13.6 C 7.77 g/m*3 13.6 C 0 km/h
279 02-06-2009 07:15:54 13.7 C 7.7 g/m*3 13.7 C 0 km/h
280 02-06-2009 07:27:54 13.8 C 7.86 g/m*3 13.8 C 0 km/h
281 02-06-2009 07:39:53 13.7 C 7.7 g/m*3 13.7 C 0 km/h
282 02-06-2009 07:51:53 14 C 7.6 g/m*3 14 C 0 km/h
283 02-06-2009 08:03:53 14.2 C 7.82 g/m*3 14.2 C 0 km/h
284 02-06-2009 08:15:53 14.4 C 7.91 g/m*3 14.4 C 0 km/h
285 02-06-2009 08:27:53 14.6 C 7.63 g/m*3 14.6 C 0 km/h
286 02-06-2009 08:39:53 14.7 C 7.68 g/m*3 14.7 C 0 km/h
287 02-06-2009 08:51:53 15.1 C 7.74 g/m*3 15.1 C 0 km/h
288 02-06-2009 09:03:53 15.5 C 7.8 g/m*3 15.5 C 0 km/h
289 02-06-2009 09:15:52 15.8 C 7.81 g/m*3 15.8 C 0 km/h
290 02-06-2009 09:27:52 16 C 7.63 g/m*3 16 C 0 km/h
291 02-06-2009 09:39:53 16.5 C 7.86 g/m*3 16.5 C 0 km/h
292 02-06-2009 09:51:52 17 C 7.81 g/m*3 17 C 0 km/h
293 02-06-2009 10:03:52 17.6 C 7.8 g/m*3 17.6 C 0 km/h
294 02-06-2009 10:15:51 18 C 7.83 g/m*3 18 C 0 km/h
295 02-06-2009 10:27:51 18.3 C 7.82 g/m*3 18.3 C 0 km/h
296 02-06-2009 10:39:52 18.8 C 7.73 g/m*3 18.8 C 0 km/h
297 02-06-2009 10:51:51 18.8 C 7.57 g/m*3 18.8 C 0 km/h
298 02-06-2009 11:03:51 19.3 C 7.8 g/m*3 19.3 C 0 km/h
299 02-06-2009 11:15:52 19.5 C 7.89 g/m*3 19.5 C 0 km/h
300 02-06-2009 11:27:52 20.6 C 8.23 g/m*3 20.6 C 0 km/h
Sensor: Nr:Datum:Temp:Abs-Feuchte:Windchill:Wind:
Aussen-T/F 301 02-06-2009 11:39:51 20.5 C 8.19 g/m*3 20.5 C 0 km/h
302 02-06-2009 11:51:51 20.8 C 8.15 g/m*3 20.8 C 0 km/h
303 02-06-2009 12:03:51 21.8 C 7.87 g/m*3 21.8 C 0 km/h
304 02-06-2009 12:15:51 22.4 C 7.75 g/m*3 22.4 C 0 km/h
305 02-06-2009 12:27:51 23.8 C 7.74 g/m*3 23.8 C 0 km/h
306 02-06-2009 12:39:50 23.2 C 7.28 g/m*3 23.2 C 0 km/h
307 02-06-2009 12:51:51 23.8 C 7.31 g/m*3 23.8 C 0 km/h
308 02-06-2009 13:03:50 24.1 C 7 g/m*3 24.1 C 0 km/h
309 02-06-2009 13:15:50 24.3 C 6.86 g/m*3 24.3 C 0 km/h
310 02-06-2009 13:27:50 24.4 C 6.45 g/m*3 24.4 C 0 km/h
311 02-06-2009 13:39:50 24.6 C 5.85 g/m*3 24.6 C 0 km/h
312 02-06-2009 13:51:50 24.4 C 5.56 g/m*3 24.4 C 0 km/h
313 02-06-2009 14:03:50 24.3 C 5.53 g/m*3 24.3 C 0 km/h
314 02-06-2009 14:15:49 24.6 C 5.85 g/m*3 24.6 C 0 km/h
315 02-06-2009 14:27:49 24 C 5.87 g/m*3 24 C 0 km/h
316 02-06-2009 14:39:50 25.2 C 5.82 g/m*3 25.2 C 0 km/h
317 02-06-2009 14:51:49 24.6 C 5.63 g/m*3 24.6 C 0 km/h
318 02-06-2009 15:03:49 24.7 C 5.21 g/m*3 24.7 C 0 km/h
319 02-06-2009 15:15:48 25.4 C 5.41 g/m*3 25.4 C 0 km/h
320 02-06-2009 15:27:48 25.7 C 5.03 g/m*3 25.7 C 0 km/h
321 02-06-2009 15:39:49 25.9 C 5.57 g/m*3 25.9 C 0 km/h
322 02-06-2009 15:51:48 27 C 5.4 g/m*3 27 C 0 km/h
323 02-06-2009 16:03:48 26.5 C 5.76 g/m*3 26.5 C 0 km/h
324 02-06-2009 16:15:49 26 C 5.11 g/m*3 26 C 0 km/h
325 02-06-2009 16:27:49 26.7 C 5.06 g/m*3 26.7 C 0 km/h
Sensor: Nr:Datum:Temp:Abs-Feuchte:Windchill:Wind:
Aussen-T/F 326 02-06-2009 16:39:48 27.1 C 5.18 g/m*3 27.1 C 0 km/h
327 02-06-2009 16:51:48 27 C 5.15 g/m*3 27 C 0 km/h
328 02-06-2009 17:03:48 27.8 C 5.38 g/m*3 27.8 C 0 km/h
329 02-06-2009 17:15:48 27.5 C 5.29 g/m*3 27.5 C 0 km/h
330 02-06-2009 17:27:49 27.1 C 5.18 g/m*3 27.1 C 0 km/h
331 02-06-2009 17:39:47 27.8 C 5.38 g/m*3 27.8 C 0 km/h
332 02-06-2009 17:51:48 27.6 C 5.32 g/m*3 27.6 C 0 km/h
333 02-06-2009 18:03:48 27.8 C 5.38 g/m*3 27.8 C 0 km/h
334 02-06-2009 18:15:47 28.1 C 5.47 g/m*3 28.1 C 0 km/h
335 02-06-2009 18:27:47 28.5 C 5.59 g/m*3 28.5 C 0 km/h
336 02-06-2009 18:39:47 29.2 C 5.81 g/m*3 29.2 C 0 km/h
337 02-06-2009 18:51:47 27.5 C 5.29 g/m*3 27.5 C 0 km/h
338 02-06-2009 19:03:47 28.6 C 5.62 g/m*3 28.6 C 0 km/h
339 02-06-2009 19:15:46 28.2 C 5.5 g/m*3 28.2 C 0 km/h
340 02-06-2009 19:27:46 28.1 C 5.47 g/m*3 28.1 C 0 km/h
341 02-06-2009 19:39:47 27.4 C 5.26 g/m*3 27.4 C 0 km/h
342 02-06-2009 19:51:46 27.9 C 5.68 g/m*3 27.9 C 0 km/h
343 02-06-2009 20:03:46 27.6 C 5.59 g/m*3 27.6 C 0 km/h
344 02-06-2009 20:15:46 27.3 C 5.49 g/m*3 27.3 C 0 km/h
345 02-06-2009 20:27:46 26.4 C 5.73 g/m*3 26.4 C 0 km/h
346 02-06-2009 20:39:46 25.3 C 5.85 g/m*3 25.3 C 0 km/h
347 02-06-2009 20:51:46 24.2 C 5.72 g/m*3 24.2 C 0 km/h
348 02-06-2009 21:03:45 23.9 C 5.62 g/m*3 23.9 C 0 km/h
349 02-06-2009 21:15:46 23.3 C 5.23 g/m*3 23.3 C 0 km/h
350 02-06-2009 21:27:46 22.7 C 5.46 g/m*3 22.7 C 0 km/h
Sensor: Nr:Datum:Temp:Abs-Feuchte:Windchill:Wind:
Aussen-T/F 351 02-06-2009 21:39:45 22.4 C 5.56 g/m*3 22.4 C 0 km/h
352 02-06-2009 21:51:13 22.1 C 5.47 g/m*3 22.1 C 0 km/h
353 02-06-2009 22:03:13 21.7 C 5.72 g/m*3 21.7 C 0 km/h
354 02-06-2009 22:15:13 21.5 C 5.66 g/m*3 21.5 C 0 km/h
355 02-06-2009 22:27:13 21.2 C 5.56 g/m*3 21.2 C 0 km/h
356 02-06-2009 22:39:13 20.9 C 5.83 g/m*3 20.9 C 0 km/h
357 02-06-2009 22:51:13 20.6 C 5.91 g/m*3 20.6 C 0 km/h
358 02-06-2009 23:03:13 20.3 C 5.8 g/m*3 20.3 C 0 km/h
359 02-06-2009 23:15:13 20.2 C 5.77 g/m*3 20.2 C 0 km/h
360 02-06-2009 23:27:45 19.9 C 5.84 g/m*3 19.9 C 0 km/h
361 02-06-2009 23:39:45 19.7 C 5.77 g/m*3 19.7 C 0 km/h
362 02-06-2009 23:51:45 19.9 C 6.01 g/m*3 19.9 C 0 km/h
363 03-06-2009 00:03:45 19.7 C 5.77 g/m*3 19.7 C 0 km/h
364 03-06-2009 00:15:45 19.4 C 5.67 g/m*3 19.4 C 0 km/h
365 03-06-2009 00:27:45 19 C 5.38 g/m*3 19 C 0 km/h
366 03-06-2009 00:39:44 18.6 C 5.57 g/m*3 18.6 C 0 km/h
367 03-06-2009 00:51:45 18.2 C 5.44 g/m*3 18.2 C 0 km/h
368 03-06-2009 01:03:44 17.9 C 5.5 g/m*3 17.9 C 0 km/h
369 03-06-2009 01:15:44 17.7 C 5.43 g/m*3 17.7 C 0 km/h
370 03-06-2009 01:27:44 17.3 C 5.3 g/m*3 17.3 C 0 km/h
371 03-06-2009 01:39:44 17.1 C 5.24 g/m*3 17.1 C 0 km/h
372 03-06-2009 01:51:44 16.8 C 5.29 g/m*3 16.8 C 0 km/h
373 03-06-2009 02:03:44 16.4 C 5.16 g/m*3 16.4 C 0 km/h
374 03-06-2009 02:15:43 16 C 5.18 g/m*3 16 C 0 km/h
375 03-06-2009 02:27:43 15.7 C 5.22 g/m*3 15.7 C 0 km/h
Sensor: Nr:Datum:Temp:Abs-Feuchte:Windchill:Wind:
Aussen-T/F 376 03-06-2009 02:39:44 15.4 C 5.65 g/m*3 15.4 C 0 km/h
377 03-06-2009 02:52:45 15.1 C 5.81 g/m*3 15.1 C 0 km/h
378 03-06-2009 03:04:45 15 C 5.77 g/m*3 15 C 0 km/h
379 03-06-2009 03:16:45 14.6 C 5.88 g/m*3 14.6 C 0 km/h
380 03-06-2009 03:28:45 14.4 C 5.81 g/m*3 14.4 C 0 km/h
381 03-06-2009 03:40:45 14.2 C 5.74 g/m*3 14.2 C 0 km/h
382 03-06-2009 03:52:45 13.8 C 5.96 g/m*3 13.8 C 0 km/h
383 03-06-2009 04:04:45 13.7 C 6.04 g/m*3 13.7 C 0 km/h
384 03-06-2009 04:16:44 13.6 C 6 g/m*3 13.6 C 0 km/h
385 03-06-2009 04:28:44 13.5 C 5.97 g/m*3 13.5 C 0 km/h
386 03-06-2009 04:40:45 13.3 C 6.01 g/m*3 13.3 C 0 km/h
387 03-06-2009 04:52:44 13.1 C 5.93 g/m*3 13.1 C 0 km/h
388 03-06-2009 05:04:44 13 C 5.9 g/m*3 13 C 0 km/h
389 03-06-2009 05:16:44 13 C 5.9 g/m*3 13 C 0 km/h
390 03-06-2009 05:28:44 12.8 C 5.94 g/m*3 12.8 C 0 km/h
391 03-06-2009 05:40:44 12.7 C 6.01 g/m*3 12.7 C 0 km/h
392 03-06-2009 05:52:44 12.7 C 6.01 g/m*3 12.7 C 0 km/h
393 03-06-2009 06:04:43 12.9 C 6.2 g/m*3 12.9 C 0 km/h
394 03-06-2009 06:16:43 13 C 6.24 g/m*3 13 C 0 km/h
395 03-06-2009 06:28:43 13 C 6.24 g/m*3 13 C 0 km/h
396 03-06-2009 06:40:43 13 C 6.35 g/m*3 13 C 0 km/h
397 03-06-2009 06:52:43 12.9 C 6.54 g/m*3 12.9 C 0 km/h
398 03-06-2009 07:04:42 12.8 C 6.27 g/m*3 12.8 C 0 km/h
399 03-06-2009 07:16:43 12.7 C 6.35 g/m*3 12.7 C 0 km/h
400 03-06-2009 07:28:43 12.5 C 6.05 g/m*3 12.5 C 0 km/h
Sensor: Nr:Datum:Temp:Abs-Feuchte:Windchill:Wind:
Aussen-T/F 401 03-06-2009 07:40:43 12.8 C 6.16 g/m*3 12.8 C 0 km/h
402 03-06-2009 07:52:42 12.9 C 6.2 g/m*3 12.9 C 0 km/h
403 03-06-2009 08:04:43 12.8 C 5.94 g/m*3 12.8 C 0 km/h
404 03-06-2009 08:16:42 12.8 C 5.94 g/m*3 12.8 C 0 km/h
405 03-06-2009 08:28:42 13 C 5.9 g/m*3 13 C 0 km/h
406 03-06-2009 08:40:42 13 C 5.67 g/m*3 13 C 0 km/h
407 03-06-2009 08:52:42 13.1 C 5.48 g/m*3 13.1 C 0 km/h
408 03-06-2009 09:04:42 13.5 C 5.5 g/m*3 13.5 C 0 km/h
409 03-06-2009 09:16:41 13.9 C 5.39 g/m*3 13.9 C 0 km/h
410 03-06-2009 09:28:41 13.9 C 5.04 g/m*3 13.9 C 0 km/h
411 03-06-2009 09:40:41 14.6 C 5.13 g/m*3 14.6 C 0 km/h
412 03-06-2009 09:52:41 14.7 C 5.67 g/m*3 14.7 C 0 km/h
413 03-06-2009 10:04:41 14.2 C 5.62 g/m*3 14.2 C 0 km/h
414 03-06-2009 10:16:41 14.9 C 5.23 g/m*3 14.9 C 0 km/h
415 03-06-2009 10:28:41 14.6 C 5.63 g/m*3 14.6 C 0 km/h
416 03-06-2009 10:40:41 15 C 5.39 g/m*3 15 C 0 km/h
417 03-06-2009 10:52:41 15.4 C 5.26 g/m*3 15.4 C 0 km/h
418 03-06-2009 11:04:40 14.9 C 5.23 g/m*3 14.9 C 0 km/h
419 03-06-2009 11:16:41 15.2 C 5.19 g/m*3 15.2 C 0 km/h
420 03-06-2009 11:28:41 16 C 5.31 g/m*3 16 C 0 km/h
421 03-06-2009 11:40:40 16.8 C 5.43 g/m*3 16.8 C 0 km/h
422 03-06-2009 11:52:40 17 C 5.21 g/m*3 17 C 0 km/h
423 03-06-2009 12:04:40 16.7 C 4.97 g/m*3 16.7 C 0 km/h
424 03-06-2009 12:16:40 16.8 C 4.86 g/m*3 16.8 C 0 km/h
425 03-06-2009 12:28:40 17.7 C 4.98 g/m*3 17.7 C 0 km/h
Sensor: Nr:Datum:Temp:Abs-Feuchte:Windchill:Wind:
Aussen-T/F 426 03-06-2009 12:40:39 17.9 C 4.73 g/m*3 17.9 C 0 km/h
427 03-06-2009 12:52:40 18.8 C 4.83 g/m*3 18.8 C 0 km/h
428 03-06-2009 13:04:40 17.3 C 4.42 g/m*3 17.3 C 0 km/h
429 03-06-2009 13:16:39 18.2 C 4.66 g/m*3 18.2 C 0 km/h
430 03-06-2009 13:28:39 19.5 C 4.53 g/m*3 19.5 C 0 km/h
431 03-06-2009 13:40:39 18.4 C 4.09 g/m*3 18.4 C 0 km/h
432 03-06-2009 13:52:39 19.8 C 4.27 g/m*3 19.8 C 0 km/h
433 03-06-2009 14:04:39 19.3 C 4.15 g/m*3 19.3 C 0 km/h
434 03-06-2009 14:16:38 20.1 C 4.35 g/m*3 20.1 C 0 km/h
435 03-06-2009 14:28:38 19.3 C 4.31 g/m*3 19.3 C 0 km/h
436 03-06-2009 14:40:39 19.1 C 4.43 g/m*3 19.1 C 0 km/h
437 03-06-2009 14:52:38 19.7 C 4.92 g/m*3 19.7 C 0 km/h
438 03-06-2009 15:04:38 20.5 C 4.45 g/m*3 20.5 C 0 km/h
439 03-06-2009 15:16:39 20 C 4.67 g/m*3 20 C 0 km/h
440 03-06-2009 15:28:39 20.8 C 4.53 g/m*3 20.8 C 0 km/h
441 03-06-2009 15:40:38 20.4 C 4.6 g/m*3 20.4 C 0 km/h
442 03-06-2009 15:52:37 20.9 C 4.55 g/m*3 20.9 C 0 km/h
443 03-06-2009 16:04:38 20.1 C 4.52 g/m*3 20.1 C 0 km/h
444 03-06-2009 16:16:38 20.4 C 4.42 g/m*3 20.4 C 0 km/h
445 03-06-2009 16:28:38 20.2 C 4.55 g/m*3 20.2 C 0 km/h
446 03-06-2009 16:40:37 20.3 C 4.75 g/m*3 20.3 C 0 km/h
447 03-06-2009 16:52:38 20 C 4.32 g/m*3 20 C 0 km/h
448 03-06-2009 17:04:37 20.3 C 4.57 g/m*3 20.3 C 0 km/h
449 03-06-2009 17:16:37 20.6 C 4.65 g/m*3 20.6 C 0 km/h
450 03-06-2009 17:28:37 20.7 C 4.32 g/m*3 20.7 C 0 km/h
Sensor: Nr:Datum:Temp:Abs-Feuchte:Windchill:Wind:
Aussen-T/F 451 03-06-2009 17:40:36 19.4 C 4.34 g/m*3 19.4 C 0 km/h
452 03-06-2009 17:52:37 20.6 C 4.12 g/m*3 20.6 C 0 km/h
453 03-06-2009 18:04:36 19.2 C 3.79 g/m*3 19.2 C 0 km/h
454 03-06-2009 18:16:36 20.3 C 4.05 g/m*3 20.3 C 0 km/h
455 03-06-2009 18:28:36 19.3 C 3.98 g/m*3 19.3 C 0 km/h
456 03-06-2009 18:40:37 20 C 4.32 g/m*3 20 C 0 km/h
457 03-06-2009 18:52:36 19 C 4.24 g/m*3 19 C 0 km/h
458 03-06-2009 19:04:36 19.1 C 4.26 g/m*3 19.1 C 0 km/h
459 03-06-2009 19:16:36 18.8 C 4.51 g/m*3 18.8 C 0 km/h
460 03-06-2009 19:28:36 18.1 C 4.64 g/m*3 18.1 C 0 km/h
461 03-06-2009 19:40:36 18 C 4.61 g/m*3 18 C 0 km/h
462 03-06-2009 19:52:36 18 C 4.76 g/m*3 18 C 0 km/h
463 03-06-2009 20:04:36 17.7 C 4.83 g/m*3 17.7 C 0 km/h
464 03-06-2009 20:16:36 16.9 C 5.03 g/m*3 16.9 C 0 km/h
465 03-06-2009 20:28:36 16.6 C 5.09 g/m*3 16.6 C 0 km/h
466 03-06-2009 20:40:35 16.4 C 5.02 g/m*3 16.4 C 0 km/h
467 03-06-2009 20:52:34 16.5 C 4.91 g/m*3 16.5 C 0 km/h
468 03-06-2009 21:04:35 16.1 C 4.8 g/m*3 16.1 C 0 km/h
469 03-06-2009 21:16:35 16 C 4.77 g/m*3 16 C 0 km/h
470 03-06-2009 21:28:35 15.9 C 4.88 g/m*3 15.9 C 0 km/h
471 03-06-2009 21:40:34 15.5 C 4.63 g/m*3 15.5 C 0 km/h
472 03-06-2009 21:52:35 15.4 C 4.73 g/m*3 15.4 C 0 km/h
473 03-06-2009 22:05:35 15.3 C 4.7 g/m*3 15.3 C 0 km/h
474 03-06-2009 22:17:35 15.2 C 4.67 g/m*3 15.2 C 0 km/h
475 03-06-2009 22:29:35 15 C 4.62 g/m*3 15 C 0 km/h
Sensor: Nr:Datum:Temp:Abs-Feuchte:Windchill:Wind:
Aussen-T/F 476 03-06-2009 22:41:35 14.7 C 4.78 g/m*3 14.7 C 0 km/h
477 03-06-2009 22:53:35 14.9 C 4.84 g/m*3 14.9 C 0 km/h
478 03-06-2009 23:05:35 14.8 C 4.69 g/m*3 14.8 C 0 km/h
479 03-06-2009 23:17:35 14.6 C 4.88 g/m*3 14.6 C 0 km/h
480 03-06-2009 23:29:36 14.5 C 4.97 g/m*3 14.5 C 0 km/h
481 03-06-2009 23:41:36 14.2 C 5.01 g/m*3 14.2 C 0 km/h
482 03-06-2009 23:53:36 14 C 5.07 g/m*3 14 C 0 km/h
483 04-06-2009 00:05:36 13.7 C 5.21 g/m*3 13.7 C 0 km/h
484 04-06-2009 00:17:36 13.7 C 5.33 g/m*3 13.7 C 0 km/h
485 04-06-2009 00:29:36 13.4 C 5.23 g/m*3 13.4 C 0 km/h
486 04-06-2009 00:41:36 13.1 C 5.14 g/m*3 13.1 C 0 km/h
487 04-06-2009 00:53:36 13 C 5.22 g/m*3 13 C 0 km/h
488 04-06-2009 01:05:36 12.7 C 5.34 g/m*3 12.7 C 0 km/h
489 04-06-2009 01:17:36 12.6 C 5.42 g/m*3 12.6 C 0 km/h
490 04-06-2009 01:29:36 12.7 C 5.45 g/m*3 12.7 C 0 km/h
491 04-06-2009 01:41:36 12.6 C 5.42 g/m*3 12.6 C 0 km/h
492 04-06-2009 01:53:36 12.5 C 5.5 g/m*3 12.5 C 0 km/h
493 04-06-2009 02:05:36 12.5 C 4.95 g/m*3 12.5 C 0 km/h
494 04-06-2009 02:17:36 12.4 C 4.7 g/m*3 12.4 C 0 km/h
495 04-06-2009 02:29:36 12 C 4.48 g/m*3 12 C 0 km/h
496 04-06-2009 02:41:36 11.9 C 4.45 g/m*3 11.9 C 0 km/h
497 04-06-2009 02:53:36 11.7 C 4.18 g/m*3 11.7 C 0 km/h
498 04-06-2009 03:05:36 11.5 C 4.13 g/m*3 11.5 C 0 km/h
499 04-06-2009 03:17:37 11.2 C 3.95 g/m*3 11.2 C 0 km/h
500 04-06-2009 03:29:37 11 C 4 g/m*3 11 C 0 km/h
Sensor: Nr:Datum:Temp:Abs-Feuchte:Windchill:Wind:
Aussen-T/F 501 04-06-2009 03:41:37 10.8 C 4.15 g/m*3 10.8 C 0 km/h
502 04-06-2009 03:53:37 10.9 C 4.28 g/m*3 10.9 C 0 km/h
503 04-06-2009 04:05:37 10.8 C 4.15 g/m*3 10.8 C 0 km/h
504 04-06-2009 04:17:37 10.7 C 4.22 g/m*3 10.7 C 0 km/h
505 04-06-2009 04:29:37 10.6 C 4.29 g/m*3 10.6 C 0 km/h
506 04-06-2009 04:41:37 10.6 C 4.39 g/m*3 10.6 C 0 km/h
507 04-06-2009 04:53:37 10.7 C 4.62 g/m*3 10.7 C 0 km/h
508 04-06-2009 05:05:37 10.5 C 4.85 g/m*3 10.5 C 0 km/h
509 04-06-2009 05:17:37 10.5 C 4.95 g/m*3 10.5 C 0 km/h
510 04-06-2009 05:29:37 10.6 C 5.08 g/m*3 10.6 C 0 km/h
511 04-06-2009 05:41:37 10.7 C 5.11 g/m*3 10.7 C 0 km/h
512 04-06-2009 05:53:37 10.7 C 5.01 g/m*3 10.7 C 0 km/h
513 04-06-2009 06:05:37 10.7 C 5.11 g/m*3 10.7 C 0 km/h
514 04-06-2009 06:17:37 10.7 C 5.01 g/m*3 10.7 C 0 km/h
515 04-06-2009 06:29:37 10.5 C 4.75 g/m*3 10.5 C 0 km/h
516 04-06-2009 06:41:37 10.6 C 4.78 g/m*3 10.6 C 0 km/h
517 04-06-2009 06:53:35 10.7 C 4.91 g/m*3 10.7 C 0 km/h
518 04-06-2009 07:05:35 10.7 C 4.91 g/m*3 10.7 C 0 km/h
519 04-06-2009 07:17:35 11 C 4.8 g/m*3 11 C 0 km/h
520 04-06-2009 07:29:35 10.8 C 5.04 g/m*3 10.8 C 0 km/h
521 04-06-2009 07:41:35 10.8 C 5.34 g/m*3 10.8 C 0 km/h
522 04-06-2009 07:53:35 11 C 5.31 g/m*3 11 C 0 km/h
523 04-06-2009 08:05:34 11.6 C 5.4 g/m*3 11.6 C 0 km/h
524 04-06-2009 08:17:34 11.8 C 5.37 g/m*3 11.8 C 0 km/h
525 04-06-2009 08:29:34 11.9 C 5.3 g/m*3 11.9 C 0 km/h
Sensor: Nr:Datum:Temp:Abs-Feuchte:Windchill:Wind:
Aussen-T/F 526 04-06-2009 08:41:34 12.2 C 5.18 g/m*3 12.2 C 0 km/h
527 04-06-2009 08:53:34 12.5 C 5.17 g/m*3 12.5 C 0 km/h
528 04-06-2009 09:05:33 13 C 4.88 g/m*3 13 C 0 km/h
529 04-06-2009 09:17:34 12.8 C 4.59 g/m*3 12.8 C 0 km/h
530 04-06-2009 09:29:34 12.3 C 4.13 g/m*3 12.3 C 0 km/h
531 04-06-2009 09:41:34 12.7 C 4.23 g/m*3 12.7 C 0 km/h
532 04-06-2009 09:53:33 12.9 C 4.51 g/m*3 12.9 C 0 km/h
533 04-06-2009 10:05:34 13 C 4.2 g/m*3 13 C 0 km/h
534 04-06-2009 10:17:33 13.1 C 4.45 g/m*3 13.1 C 0 km/h
535 04-06-2009 10:29:33 14.1 C 4.49 g/m*3 14.1 C 0 km/h
536 04-06-2009 10:41:33 13.5 C 4.33 g/m*3 13.5 C 0 km/h
537 04-06-2009 10:53:33 13.2 C 4.36 g/m*3 13.2 C 0 km/h
538 04-06-2009 11:05:33 14 C 4.46 g/m*3 14 C 0 km/h
539 04-06-2009 11:17:32 14.7 C 4.53 g/m*3 14.7 C 0 km/h
540 04-06-2009 11:29:32 13.3 C 4.04 g/m*3 13.3 C 0 km/h
541 04-06-2009 11:41:32 13.1 C 3.99 g/m*3 13.1 C 0 km/h
542 04-06-2009 11:53:32 13.5 C 4.33 g/m*3 13.5 C 0 km/h
543 04-06-2009 12:05:32 14.7 C 4.53 g/m*3 14.7 C 0 km/h
544 04-06-2009 12:17:32 14.5 C 4.35 g/m*3 14.5 C 0 km/h
545 04-06-2009 12:29:32 14.6 C 4.25 g/m*3 14.6 C 0 km/h
546 04-06-2009 12:41:32 14.4 C 3.96 g/m*3 14.4 C 0 km/h
547 04-06-2009 12:53:32 14.7 C 4.28 g/m*3 14.7 C 0 km/h
548 04-06-2009 13:05:31 14.7 C 4.41 g/m*3 14.7 C 0 km/h
549 04-06-2009 13:17:32 15.7 C 4.01 g/m*3 15.7 C 0 km/h
550 04-06-2009 13:29:32 15.6 C 3.72 g/m*3 15.6 C 0 km/h
Sensor: Nr:Datum:Temp:Abs-Feuchte:Windchill:Wind:
Aussen-T/F 551 04-06-2009 13:41:31 14.9 C 3.95 g/m*3 14.9 C 0 km/h
552 04-06-2009 13:53:31 14.4 C 3.96 g/m*3 14.4 C 0 km/h
553 04-06-2009 14:05:31 15.1 C 4.13 g/m*3 15.1 C 0 km/h
554 04-06-2009 14:17:31 16.2 C 4.14 g/m*3 16.2 C 0 km/h
555 04-06-2009 14:29:31 15.3 C 3.79 g/m*3 15.3 C 0 km/h
556 04-06-2009 14:41:31 14.8 C 3.67 g/m*3 14.8 C 0 km/h
557 04-06-2009 14:53:30 15.8 C 3.9 g/m*3 15.8 C 0 km/h
558 04-06-2009 15:05:30 16.3 C 4.16 g/m*3 16.3 C 0 km/h
559 04-06-2009 15:17:30 17.5 C 3.88 g/m*3 17.5 C 0 km/h
560 04-06-2009 15:29:30 16.1 C 3.56 g/m*3 16.1 C 0 km/h
561 04-06-2009 15:41:30 15.9 C 3.79 g/m*3 15.9 C 0 km/h
562 04-06-2009 15:53:30 16.4 C 3.77 g/m*3 16.4 C 0 km/h
563 04-06-2009 16:05:30 16.3 C 3.75 g/m*3 16.3 C 0 km/h
564 04-06-2009 16:17:30 16.2 C 3.59 g/m*3 16.2 C 0 km/h
565 04-06-2009 16:29:30 17.2 C 3.66 g/m*3 17.2 C 0 km/h
566 04-06-2009 16:41:30 16.5 C 3.51 g/m*3 16.5 C 0 km/h
567 04-06-2009 16:53:29 16.2 C 3.72 g/m*3 16.2 C 0 km/h
568 04-06-2009 17:05:29 16.1 C 3.84 g/m*3 16.1 C 0 km/h
569 04-06-2009 17:17:29 16.4 C 3.91 g/m*3 16.4 C 0 km/h
570 04-06-2009 17:29:29 15.6 C 3.86 g/m*3 15.6 C 0 km/h
571 04-06-2009 17:41:29 15.6 C 3.99 g/m*3 15.6 C 0 km/h
572 04-06-2009 17:53:28 16.2 C 4.14 g/m*3 16.2 C 0 km/h
573 04-06-2009 18:05:29 16 C 4.09 g/m*3 16 C 0 km/h
574 04-06-2009 18:17:29 15.8 C 4.17 g/m*3 15.8 C 0 km/h
575 04-06-2009 18:29:29 16.1 C 4.25 g/m*3 16.1 C 0 km/h
Sensor: Nr:Datum:Temp:Abs-Feuchte:Windchill:Wind:
Aussen-T/F 576 04-06-2009 18:41:29 15.4 C 4.07 g/m*3 15.4 C 0 km/h
577 04-06-2009 18:53:28 15.7 C 4.28 g/m*3 15.7 C 0 km/h
578 04-06-2009 19:05:28 15.3 C 4.18 g/m*3 15.3 C 0 km/h
579 04-06-2009 19:17:28 15.4 C 4.2 g/m*3 15.4 C 0 km/h
580 04-06-2009 19:29:28 15.4 C 4.34 g/m*3 15.4 C 0 km/h
581 04-06-2009 19:41:28 14.7 C 4.41 g/m*3 14.7 C 0 km/h
582 04-06-2009 19:53:28 15.1 C 4.52 g/m*3 15.1 C 0 km/h
583 04-06-2009 20:05:28 14.9 C 4.59 g/m*3 14.9 C 0 km/h
584 04-06-2009 20:17:27 14.9 C 4.59 g/m*3 14.9 C 0 km/h
585 04-06-2009 20:29:27 14.7 C 4.66 g/m*3 14.7 C 0 km/h
586 04-06-2009 20:41:27 14.5 C 4.73 g/m*3 14.5 C 0 km/h
587 04-06-2009 20:53:27 14.1 C 4.61 g/m*3 14.1 C 0 km/h
588 04-06-2009 21:05:27 14 C 4.7 g/m*3 14 C 0 km/h
589 04-06-2009 21:17:27 13.8 C 4.77 g/m*3 13.8 C 0 km/h
590 04-06-2009 21:29:27 13.7 C 4.86 g/m*3 13.7 C 0 km/h
591 04-06-2009 21:41:27 13.5 C 4.91 g/m*3 13.5 C 0 km/h
592 04-06-2009 21:53:27 13.5 C 5.03 g/m*3 13.5 C 0 km/h
593 04-06-2009 22:06:22 13.3 C 4.97 g/m*3 13.3 C 0 km/h
594 04-06-2009 22:18:22 13.2 C 4.94 g/m*3 13.2 C 0 km/h
595 04-06-2009 22:30:22 13 C 4.99 g/m*3 13 C 0 km/h
596 04-06-2009 22:42:22 13 C 4.88 g/m*3 13 C 0 km/h
597 04-06-2009 22:54:22 12.9 C 4.96 g/m*3 12.9 C 0 km/h
598 04-06-2009 23:06:22 12.7 C 5.01 g/m*3 12.7 C 0 km/h
599 04-06-2009 23:18:22 12.4 C 4.92 g/m*3 12.4 C 0 km/h
600 04-06-2009 23:30:22 12.2 C 4.86 g/m*3 12.2 C 0 km/h
Sensor: Nr:Datum:Temp:Abs-Feuchte:Windchill:Wind:
Aussen-T/F 601 04-06-2009 23:42:22 12.1 C 4.93 g/m*3 12.1 C 0 km/h
602 04-06-2009 23:54:22 12 C 5.01 g/m*3 12 C 0 km/h
603 05-06-2009 00:06:22 11.7 C 5.12 g/m*3 11.7 C 0 km/h
604 05-06-2009 00:18:22 11.7 C 5.12 g/m*3 11.7 C 0 km/h
605 05-06-2009 00:30:22 11.6 C 5.09 g/m*3 11.6 C 0 km/h
606 05-06-2009 00:42:22 11.4 C 4.82 g/m*3 11.4 C 0 km/h
607 05-06-2009 00:54:22 11.2 C 4.76 g/m*3 11.2 C 0 km/h
608 05-06-2009 01:06:22 11.2 C 4.66 g/m*3 11.2 C 0 km/h
609 05-06-2009 01:18:22 11.1 C 4.63 g/m*3 11.1 C 0 km/h
610 05-06-2009 01:30:22 11 C 4.6 g/m*3 11 C 0 km/h
611 05-06-2009 01:42:22 10.9 C 4.67 g/m*3 10.9 C 0 km/h
612 05-06-2009 01:54:23 10.8 C 4.65 g/m*3 10.8 C 0 km/h
613 05-06-2009 02:06:23 10.7 C 4.71 g/m*3 10.7 C 0 km/h
614 05-06-2009 02:18:23 10.4 C 4.72 g/m*3 10.4 C 0 km/h
615 05-06-2009 02:30:23 10 C 4.7 g/m*3 10 C 0 km/h
616 05-06-2009 02:42:23 9.6 C 4.76 g/m*3 9.6 C 0 km/h
617 05-06-2009 02:54:23 9.2 C 4.91 g/m*3 9.2 C 0 km/h
618 05-06-2009 03:06:23 9.2 C 5 g/m*3 9.2 C 0 km/h
619 05-06-2009 03:18:23 9.3 C 5.03 g/m*3 9.3 C 0 km/h
620 05-06-2009 03:30:23 9.2 C 5 g/m*3 9.2 C 0 km/h
621 05-06-2009 03:42:23 9 C 5.11 g/m*3 9 C 0 km/h
622 05-06-2009 03:54:23 8.6 C 5.16 g/m*3 8.6 C 0 km/h
623 05-06-2009 04:06:23 8.6 C 5.16 g/m*3 8.6 C 0 km/h
624 05-06-2009 04:18:23 8.6 C 5.24 g/m*3 8.6 C 0 km/h
625 05-06-2009 04:30:23 8.5 C 5.21 g/m*3 8.5 C 0 km/h
Sensor: Nr:Datum:Temp:Abs-Feuchte:Windchill:Wind:
Aussen-T/F 626 05-06-2009 04:42:23 8.5 C 5.29 g/m*3 8.5 C 0 km/h
627 05-06-2009 04:54:23 8.5 C 5.38 g/m*3 8.5 C 0 km/h
628 05-06-2009 05:06:23 8.4 C 5.34 g/m*3 8.4 C 0 km/h
629 05-06-2009 05:18:23 8.1 C 5.33 g/m*3 8.1 C 0 km/h
630 05-06-2009 05:30:23 8.2 C 5.44 g/m*3 8.2 C 0 km/h
631 05-06-2009 05:42:23 8.4 C 5.6 g/m*3 8.4 C 0 km/h
632 05-06-2009 05:54:24 8.5 C 5.64 g/m*3 8.5 C 0 km/h
633 05-06-2009 06:06:24 8.5 C 5.72 g/m*3 8.5 C 0 km/h
634 05-06-2009 06:18:24 8.5 C 5.64 g/m*3 8.5 C 0 km/h
635 05-06-2009 06:30:24 8.5 C 5.72 g/m*3 8.5 C 0 km/h
636 05-06-2009 06:42:24 8.5 C 5.72 g/m*3 8.5 C 0 km/h
637 05-06-2009 06:54:24 8.7 C 5.79 g/m*3 8.7 C 0 km/h
638 05-06-2009 07:06:28 8.8 C 5.83 g/m*3 8.8 C 0 km/h
639 05-06-2009 07:18:27 8.9 C 5.78 g/m*3 8.9 C 0 km/h
640 05-06-2009 07:30:28 9.2 C 5.63 g/m*3 9.2 C 0 km/h
641 05-06-2009 07:42:28 10 C 5.64 g/m*3 10 C 0 km/h
642 05-06-2009 07:54:27 10.2 C 5.52 g/m*3 10.2 C 0 km/h
643 05-06-2009 08:06:27 10.5 C 5.63 g/m*3 10.5 C 0 km/h
644 05-06-2009 08:18:27 10.8 C 5.63 g/m*3 10.8 C 0 km/h
645 05-06-2009 08:30:27 10.6 C 5.56 g/m*3 10.6 C 0 km/h
646 05-06-2009 08:42:27 10.2 C 5.61 g/m*3 10.2 C 0 km/h
647 05-06-2009 08:54:26 10.4 C 5.78 g/m*3 10.4 C 0 km/h
648 05-06-2009 09:06:27 11.5 C 5.78 g/m*3 11.5 C 0 km/h
649 05-06-2009 09:18:26 12.3 C 5.43 g/m*3 12.3 C 0 km/h
650 05-06-2009 09:30:26 12.7 C 5.12 g/m*3 12.7 C 0 km/h
Sensor: Nr:Datum:Temp:Abs-Feuchte:Windchill:Wind:
Aussen-T/F 651 05-06-2009 09:42:26 11.8 C 4.95 g/m*3 11.8 C 0 km/h
652 05-06-2009 09:54:26 12.1 C 5.25 g/m*3 12.1 C 0 km/h
653 05-06-2009 10:06:26 12.7 C 5.12 g/m*3 12.7 C 0 km/h
654 05-06-2009 10:18:25 13.1 C 5.02 g/m*3 13.1 C 0 km/h
655 05-06-2009 10:30:26 12.3 C 4.67 g/m*3 12.3 C 0 km/h
656 05-06-2009 10:42:26 13.3 C 4.97 g/m*3 13.3 C 0 km/h
657 05-06-2009 10:54:26 12.6 C 4.54 g/m*3 12.6 C 0 km/h
658 05-06-2009 11:06:25 12.3 C 4.56 g/m*3 12.3 C 0 km/h
659 05-06-2009 11:18:26 13 C 4.76 g/m*3 13 C 0 km/h
660 05-06-2009 11:30:25 13.4 C 4.65 g/m*3 13.4 C 0 km/h
661 05-06-2009 11:42:25 14 C 4.34 g/m*3 14 C 0 km/h
662 05-06-2009 11:54:25 14.3 C 4.18 g/m*3 14.3 C 0 km/h
663 05-06-2009 12:06:24 14.6 C 4.38 g/m*3 14.6 C 0 km/h
664 05-06-2009 12:18:25 15.3 C 4.44 g/m*3 15.3 C 0 km/h
665 05-06-2009 12:30:25 15.6 C 4.26 g/m*3 15.6 C 0 km/h
666 05-06-2009 12:42:25 16.1 C 4.25 g/m*3 16.1 C 0 km/h
667 05-06-2009 12:54:24 16.6 C 4.38 g/m*3 16.6 C 0 km/h
668 05-06-2009 13:06:25 18.5 C 4.43 g/m*3 18.5 C 0 km/h
669 05-06-2009 13:18:24 17.7 C 4.22 g/m*3 17.7 C 0 km/h
670 05-06-2009 13:30:24 17.2 C 4.25 g/m*3 17.2 C 0 km/h
671 05-06-2009 13:42:25 16.6 C 4.1 g/m*3 16.6 C 0 km/h
672 05-06-2009 13:54:24 16.2 C 4 g/m*3 16.2 C 0 km/h
673 05-06-2009 14:06:24 16.5 C 4.07 g/m*3 16.5 C 0 km/h
674 05-06-2009 14:18:23 16.8 C 4.15 g/m*3 16.8 C 0 km/h
675 05-06-2009 14:30:23 16.6 C 3.96 g/m*3 16.6 C 0 km/h
Sensor: Nr:Datum:Temp:Abs-Feuchte:Windchill:Wind:
Aussen-T/F 676 05-06-2009 14:42:23 16.2 C 3.86 g/m*3 16.2 C 0 km/h
677 05-06-2009 14:54:23 16.4 C 4.19 g/m*3 16.4 C 0 km/h
678 05-06-2009 15:06:23 16.8 C 4.15 g/m*3 16.8 C 0 km/h
679 05-06-2009 15:18:23 16.4 C 3.77 g/m*3 16.4 C 0 km/h
680 05-06-2009 15:30:23 16 C 3.95 g/m*3 16 C 0 km/h
681 05-06-2009 15:42:23 15.9 C 3.93 g/m*3 15.9 C 0 km/h
682 05-06-2009 15:54:23 15.6 C 3.72 g/m*3 15.6 C 0 km/h
683 05-06-2009 16:06:22 16.8 C 3.86 g/m*3 16.8 C 0 km/h
684 05-06-2009 16:18:22 17.6 C 4.05 g/m*3 17.6 C 0 km/h
685 05-06-2009 16:30:23 18.4 C 4.09 g/m*3 18.4 C 0 km/h
686 05-06-2009 16:42:23 18.9 C 4.05 g/m*3 18.9 C 0 km/h
687 05-06-2009 16:54:22 20.1 C 4 g/m*3 20.1 C 0 km/h
688 05-06-2009 17:06:21 20 C 3.46 g/m*3 20 C 0 km/h
689 05-06-2009 17:18:22 18.4 C 3.3 g/m*3 18.4 C 0 km/h
690 05-06-2009 17:30:22 20.4 C 3.71 g/m*3 20.4 C 0 km/h
691 05-06-2009 17:42:22 20.7 C 3.6 g/m*3 20.7 C 0 km/h
692 05-06-2009 17:54:21 22 C 3.88 g/m*3 22 C 0 km/h
693 05-06-2009 18:06:22 22.9 C 4.09 g/m*3 22.9 C 0 km/h
694 05-06-2009 18:18:21 22.9 C 4.09 g/m*3 22.9 C 0 km/h
695 05-06-2009 18:30:21 22.1 C 3.9 g/m*3 22.1 C 0 km/h
696 05-06-2009 18:42:21 21 C 3.66 g/m*3 21 C 0 km/h
697 05-06-2009 18:54:21 20.7 C 3.6 g/m*3 20.7 C 0 km/h
698 05-06-2009 19:06:21 21 C 3.66 g/m*3 21 C 0 km/h
699 05-06-2009 19:18:20 20.2 C 3.5 g/m*3 20.2 C 0 km/h
700 05-06-2009 19:30:20 18.5 C 3.48 g/m*3 18.5 C 0 km/h
Sensor: Nr:Datum:Temp:Abs-Feuchte:Windchill:Wind:
Aussen-T/F 701 05-06-2009 19:42:20 17.7 C 3.92 g/m*3 17.7 C 0 km/h
702 05-06-2009 19:54:20 17.9 C 3.97 g/m*3 17.9 C 0 km/h
703 05-06-2009 20:06:20 17.7 C 4.07 g/m*3 17.7 C 0 km/h
704 05-06-2009 20:18:20 17.2 C 4.25 g/m*3 17.2 C 0 km/h
705 05-06-2009 20:30:20 16.9 C 4.6 g/m*3 16.9 C 0 km/h
706 05-06-2009 20:42:20 16 C 4.63 g/m*3 16 C 0 km/h
707 05-06-2009 20:54:20 15 C 4.62 g/m*3 15 C 0 km/h
708 05-06-2009 21:06:20 14.2 C 4.76 g/m*3 14.2 C 0 km/h
709 05-06-2009 21:18:20 13.4 C 4.77 g/m*3 13.4 C 0 km/h
710 05-06-2009 21:30:19 13 C 4.65 g/m*3 13 C 0 km/h
711 05-06-2009 21:42:19 12.7 C 4.9 g/m*3 12.7 C 0 km/h
712 05-06-2009 21:54:20 12.2 C 4.86 g/m*3 12.2 C 0 km/h
713 05-06-2009 22:06:19 11.9 C 4.87 g/m*3 11.9 C 0 km/h
714 05-06-2009 22:18:19 11.8 C 5.05 g/m*3 11.8 C 0 km/h
715 05-06-2009 22:31:19 11.4 C 5.03 g/m*3 11.4 C 0 km/h
716 05-06-2009 22:43:19 11.1 C 5.04 g/m*3 11.1 C 0 km/h
717 05-06-2009 22:55:19 11 C 5.1 g/m*3 11 C 0 km/h
718 05-06-2009 23:07:19 10.8 C 5.14 g/m*3 10.8 C 0 km/h
719 05-06-2009 23:19:19 10.5 C 5.14 g/m*3 10.5 C 0 km/h
720 05-06-2009 23:31:19 10.4 C 5.2 g/m*3 10.4 C 0 km/h
721 05-06-2009 23:43:19 10.1 C 5.2 g/m*3 10.1 C 0 km/h
722 05-06-2009 23:55:20 10 C 5.17 g/m*3 10 C 0 km/h
723 06-06-2009 00:07:20 9.8 C 5.29 g/m*3 9.8 C 0 km/h
724 06-06-2009 00:19:20 9.7 C 5.35 g/m*3 9.7 C 0 km/h
725 06-06-2009 00:31:20 9.5 C 5.37 g/m*3 9.5 C 0 km/h
Sensor: Nr:Datum:Temp:Abs-Feuchte:Windchill:Wind:
Aussen-T/F 726 06-06-2009 00:43:20 9.1 C 5.32 g/m*3 9.1 C 0 km/h
727 06-06-2009 00:55:20 8.9 C 5.43 g/m*3 8.9 C 0 km/h
728 06-06-2009 01:07:20 8.8 C 5.4 g/m*3 8.8 C 0 km/h
729 06-06-2009 01:19:20 8.6 C 5.33 g/m*3 8.6 C 0 km/h
730 06-06-2009 01:31:20 8.6 C 5.41 g/m*3 8.6 C 0 km/h
731 06-06-2009 01:43:20 8.5 C 5.55 g/m*3 8.5 C 0 km/h
732 06-06-2009 01:55:20 8.3 C 5.48 g/m*3 8.3 C 0 km/h
733 06-06-2009 02:07:20 8.2 C 5.53 g/m*3 8.2 C 0 km/h
734 06-06-2009 02:19:20 8.1 C 5.49 g/m*3 8.1 C 0 km/h
735 06-06-2009 02:31:20 8.1 C 5.57 g/m*3 8.1 C 0 km/h
736 06-06-2009 02:43:20 8.1 C 5.66 g/m*3 8.1 C 0 km/h
737 06-06-2009 02:55:20 8.1 C 5.66 g/m*3 8.1 C 0 km/h
738 06-06-2009 03:07:20 8 C 5.79 g/m*3 8 C 0 km/h
739 06-06-2009 03:19:20 7.8 C 5.79 g/m*3 7.8 C 0 km/h
740 06-06-2009 03:31:20 7.6 C 5.8 g/m*3 7.6 C 0 km/h
741 06-06-2009 03:43:20 7.5 C 5.84 g/m*3 7.5 C 0 km/h
742 06-06-2009 03:55:20 7.4 C 5.81 g/m*3 7.4 C 0 km/h
743 06-06-2009 04:07:21 7.4 C 5.81 g/m*3 7.4 C 0 km/h
744 06-06-2009 04:19:21 7.4 C 5.81 g/m*3 7.4 C 0 km/h
745 06-06-2009 04:31:21 7.3 C 5.85 g/m*3 7.3 C 0 km/h
746 06-06-2009 04:43:21 7.1 C 5.77 g/m*3 7.1 C 0 km/h
747 06-06-2009 04:55:21 7.2 C 5.89 g/m*3 7.2 C 0 km/h
748 06-06-2009 05:07:21 7.4 C 5.96 g/m*3 7.4 C 0 km/h
749 06-06-2009 05:19:21 7.6 C 6.04 g/m*3 7.6 C 0 km/h
750 06-06-2009 05:31:21 7.8 C 6.04 g/m*3 7.8 C 0 km/h
Sensor: Nr:Datum:Temp:Abs-Feuchte:Windchill:Wind:
Aussen-T/F 751 06-06-2009 05:43:21 8 C 6.04 g/m*3 8 C 0 km/h
752 06-06-2009 05:55:21 8.1 C 6.07 g/m*3 8.1 C 0 km/h
753 06-06-2009 06:07:21 8.2 C 6.11 g/m*3 8.2 C 0 km/h
754 06-06-2009 06:19:21 8.4 C 6.19 g/m*3 8.4 C 0 km/h
755 06-06-2009 06:31:21 8.7 C 6.23 g/m*3 8.7 C 0 km/h
756 06-06-2009 06:43:21 8.7 C 6.05 g/m*3 8.7 C 0 km/h
757 06-06-2009 06:55:21 8.9 C 6.13 g/m*3 8.9 C 0 km/h
758 06-06-2009 07:07:21 8.9 C 6.13 g/m*3 8.9 C 0 km/h
759 06-06-2009 07:19:21 8.9 C 6.13 g/m*3 8.9 C 0 km/h
760 06-06-2009 07:31:21 8.6 C 6.27 g/m*3 8.6 C 0 km/h
761 06-06-2009 07:43:21 8.6 C 6.44 g/m*3 8.6 C 0 km/h
762 06-06-2009 07:55:21 8.6 C 6.62 g/m*3 8.6 C 0 km/h
763 06-06-2009 08:07:22 8.6 C 6.79 g/m*3 8.6 C 0 km/h
764 06-06-2009 08:19:22 8.6 C 6.96 g/m*3 8.6 C 0 km/h
765 06-06-2009 08:31:22 8.3 C 7.08 g/m*3 8.3 C 0 km/h
766 06-06-2009 08:43:22 8.3 C 7.33 g/m*3 8.3 C 0 km/h
767 06-06-2009 08:55:22 8.2 C 7.37 g/m*3 8.2 C 0 km/h
768 06-06-2009 09:07:19 8.5 C 7.6 g/m*3 8.5 C 0 km/h
769 06-06-2009 09:19:19 8.4 C 7.63 g/m*3 8.4 C 0 km/h
770 06-06-2009 09:31:20 8.7 C 7.78 g/m*3 8.7 C 0 km/h
771 06-06-2009 09:43:20 8.7 C 7.87 g/m*3 8.7 C 0 km/h
772 06-06-2009 09:55:19 8.9 C 7.97 g/m*3 8.9 C 0 km/h
773 06-06-2009 10:07:19 9.1 C 7.99 g/m*3 9.1 C 0 km/h
774 06-06-2009 10:19:19 9.1 C 7.99 g/m*3 9.1 C 0 km/h
775 06-06-2009 10:31:19 8.9 C 7.97 g/m*3 8.9 C 0 km/h
Sensor: Nr:Datum:Temp:Abs-Feuchte:Windchill:Wind:
Aussen-T/F 776 06-06-2009 10:43:19 9 C 7.93 g/m*3 9 C 0 km/h
777 06-06-2009 10:55:18 9 C 7.93 g/m*3 9 C 0 km/h
778 06-06-2009 11:07:19 9 C 7.93 g/m*3 9 C 0 km/h
779 06-06-2009 11:19:18 9 C 7.93 g/m*3 9 C 0 km/h
780 06-06-2009 11:31:18 9.2 C 8.13 g/m*3 9.2 C 0 km/h
781 06-06-2009 11:43:18 9.2 C 8.13 g/m*3 9.2 C 0 km/h
782 06-06-2009 11:55:18 9 C 8.02 g/m*3 9 C 0 km/h
783 06-06-2009 12:07:17 9.2 C 8.13 g/m*3 9.2 C 0 km/h
784 06-06-2009 12:19:18 9.4 C 8.32 g/m*3 9.4 C 0 km/h
785 06-06-2009 12:31:18 9.3 C 8.27 g/m*3 9.3 C 0 km/h
786 06-06-2009 12:43:18 9.3 C 8.27 g/m*3 9.3 C 0 km/h
787 06-06-2009 12:55:17 9.5 C 8.37 g/m*3 9.5 C 0 km/h
788 06-06-2009 13:07:18 9.6 C 8.43 g/m*3 9.6 C 0 km/h
789 06-06-2009 13:19:17 9.7 C 8.48 g/m*3 9.7 C 0 km/h
790 06-06-2009 13:31:17 9.7 C 8.57 g/m*3 9.7 C 0 km/h
791 06-06-2009 13:43:17 9.7 C 8.57 g/m*3 9.7 C 0 km/h
792 06-06-2009 13:55:17 9.6 C 8.52 g/m*3 9.6 C 0 km/h
793 06-06-2009 14:07:17 9.8 C 8.63 g/m*3 9.8 C 0 km/h
794 06-06-2009 14:19:16 9.8 C 8.63 g/m*3 9.8 C 0 km/h
795 06-06-2009 14:31:16 9.8 C 8.63 g/m*3 9.8 C 0 km/h
796 06-06-2009 14:43:16 9.6 C 8.43 g/m*3 9.6 C 0 km/h
797 06-06-2009 14:55:16 9.5 C 8.37 g/m*3 9.5 C 0 km/h
798 06-06-2009 15:07:16 9.5 C 8.37 g/m*3 9.5 C 0 km/h
799 06-06-2009 15:19:15 9.4 C 8.32 g/m*3 9.4 C 0 km/h
800 06-06-2009 15:31:16 9.5 C 8.37 g/m*3 9.5 C 0 km/h
Sensor: Nr:Datum:Temp:Abs-Feuchte:Windchill:Wind:
Aussen-T/F 801 06-06-2009 15:43:16 9.7 C 8.57 g/m*3 9.7 C 0 km/h
802 06-06-2009 15:55:15 9.8 C 8.63 g/m*3 9.8 C 0 km/h
803 06-06-2009 16:07:15 10.1 C 8.7 g/m*3 10.1 C 0 km/h
804 06-06-2009 16:19:16 10.1 C 8.7 g/m*3 10.1 C 0 km/h
805 06-06-2009 16:31:15 9.9 C 8.68 g/m*3 9.9 C 0 km/h
806 06-06-2009 16:43:15 10 C 8.64 g/m*3 10 C 0 km/h
807 06-06-2009 16:55:15 9.9 C 8.68 g/m*3 9.9 C 0 km/h
808 06-06-2009 17:07:15 9.9 C 8.59 g/m*3 9.9 C 0 km/h
809 06-06-2009 17:19:15 9.9 C 8.59 g/m*3 9.9 C 0 km/h
810 06-06-2009 17:31:14 10.1 C 8.61 g/m*3 10.1 C 0 km/h
811 06-06-2009 17:43:14 10.3 C 8.71 g/m*3 10.3 C 0 km/h
812 06-06-2009 17:55:15 10.4 C 8.67 g/m*3 10.4 C 0 km/h
813 06-06-2009 18:07:14 10.5 C 8.73 g/m*3 10.5 C 0 km/h
814 06-06-2009 18:19:14 10.9 C 8.95 g/m*3 10.9 C 0 km/h
815 06-06-2009 18:31:02 10.7 C 8.64 g/m*3 10.7 C 0 km/h
816 06-06-2009 18:43:02 10.8 C 8.7 g/m*3 10.8 C 0 km/h
817 06-06-2009 18:55:01 10.7 C 8.45 g/m*3 10.7 C 0 km/h
818 06-06-2009 19:07:02 10.8 C 8.5 g/m*3 10.8 C 0 km/h
819 06-06-2009 19:19:01 10.9 C 8.45 g/m*3 10.9 C 0 km/h
820 06-06-2009 19:31:01 11.1 C 8.56 g/m*3 11.1 C 0 km/h
821 06-06-2009 19:43:01 11 C 8.51 g/m*3 11 C 0 km/h
822 06-06-2009 19:55:01 10.9 C 8.65 g/m*3 10.9 C 0 km/h
823 06-06-2009 20:07:01 10.5 C 8.34 g/m*3 10.5 C 0 km/h
824 06-06-2009 20:19:00 10.4 C 8.29 g/m*3 10.4 C 0 km/h
825 06-06-2009 20:31:00 10.4 C 8.38 g/m*3 10.4 C 0 km/h
Sensor: Nr:Datum:Temp:Abs-Feuchte:Windchill:Wind:
Aussen-T/F 826 06-06-2009 20:43:00 10.4 C 8.38 g/m*3 10.4 C 0 km/h
827 06-06-2009 20:55:00 10.3 C 8.33 g/m*3 10.3 C 0 km/h
828 06-06-2009 21:07:00 10.3 C 8.43 g/m*3 10.3 C 0 km/h
829 06-06-2009 21:18:59 10.2 C 8.37 g/m*3 10.2 C 0 km/h
830 06-06-2009 21:31:00 10.2 C 8.37 g/m*3 10.2 C 0 km/h
831 06-06-2009 21:43:00 10.1 C 8.32 g/m*3 10.1 C 0 km/h
832 06-06-2009 21:55:59 9.8 C 8.26 g/m*3 9.8 C 0 km/h
833 06-06-2009 22:07:59 9.5 C 8.1 g/m*3 9.5 C 0 km/h
834 06-06-2009 22:19:00 9.4 C 8.14 g/m*3 9.4 C 0 km/h
835 06-06-2009 22:31:59 9.4 C 8.23 g/m*3 9.4 C 0 km/h
836 06-06-2009 22:43:59 9.5 C 8.28 g/m*3 9.5 C 0 km/h
837 06-06-2009 22:55:59 9.6 C 8.43 g/m*3 9.6 C 0 km/h
838 06-06-2009 23:07:59 9.5 C 8.37 g/m*3 9.5 C 0 km/h
839 06-06-2009 23:19:59 9.5 C 8.37 g/m*3 9.5 C 0 km/h
840 06-06-2009 23:31:58 9.2 C 8.13 g/m*3 9.2 C 0 km/h
841 06-06-2009 23:43:58 8.8 C 8.01 g/m*3 8.8 C 0 km/h
842 06-06-2009 23:55:59 8.5 C 7.85 g/m*3 8.5 C 0 km/h

Legende:
   Min
   Max


Maximal/Minimal-Werte vom 31.05.2009 - 06.06.2009

Sensor Min Max Avg
Temp
(Aussen-T/F)
7.1 °C
06-06-2009  04:43:21
29.4 °C
01-06-2009  16:38:56
16 °C
Abs-Feuchte
(Aussen-T/F)
3.3 g/m*3
05-06-2009  17:18:22
12.69 g/m*3
01-06-2009  14:26:59
6.41 g/m*3
Windchill
(Aussen-T/F)
7.1 C
06-06-2009  04:43:21
29.4 C
01-06-2009  16:38:56
16 C

Die Daten stammen von einer Davis Vantage Pro 2 Wetter-Station und werden unter Linux mit der Software wview2wettercgi und aufbereitet. Alle Angaben erfolgen ohne Gewähr für ihre Vollständigkeit oder Richtigkeit.
Kontakt: Rainer Krienke krienke@uni-koblenz.de . Meine Webseiten an der Uni Koblenz oder privat.
Version: $Revision: 0.78 $